Terminal Aerodrome Forecast
Issued by NWS

Home | Current Version | Previous Version | Text Only | Print | Product List | Glossary On
Versions: 1 2 3 4 5 6 7 8 9 10 11 12 13 14 15 16 17 18 19 20 21 22 23 24 25 26 27 28
000
FTUS41 KCTP 161739
TAFJST
TAF
KJST 161739Z 1618/1718 31005KT P6SM SCT050
     FM170000 VRB03KT P6SM SCT200
     FM170900 VRB03KT 5SM BR SCT003 BKN120
     FM171200 18006KT P6SM BKN040=

USA.gov is the U.S. government's official web portal to all federal, state and local government web resources and services.